Flight Track Log - Related Links

Times and Time Zones

All times are in EDT time to prevent confusion due to time zone crossing. See the N53NW flight status page for this flight to view local times or setup timezone preferences in your user account.

Time Position Orientation Groundspeed Altitude Reporting Facility
EDT Latitude Longitude Course Direction KTS MPH feet Rate Location/Type
Sun 11:23:37 AM 43.3300 -114.2472 194° South 285 328 14,500  Level Salt Lake Center
Sun 11:24:39 AM 43.2528 -114.2675 191° South 275 316 17,700 2,829 Climbing Salt Lake Center
Sun 11:25:00 AM 42.9653 -114.3439 196° South  Level FlightAware Approximate
Sun 11:25:40 AM 43.2025 -114.3339 224° Southwest 287 330 20,300  Level Salt Lake Center
Sun 11:26:00 AM 42.8753 -114.3613 191° South  Level FlightAware Approximate
Sun 11:26:42 AM 43.1533 -114.4233 233° Southwest 295 339 23,300  Level Salt Lake Center
Sun 11:27:00 AM 42.7856 -114.3858 191° South  Level FlightAware Approximate
Sun 11:27:44 AM 43.0933 -114.5317 233° Southwest 298 343 26,800  Level Salt Lake Center
Sun 11:28:00 AM 42.6964 -114.4124 194° South  Level FlightAware Approximate
Sun 11:28:45 AM 43.0431 -114.6228 233° Southwest 300 345 29,400  Level Salt Lake Center
Sun 11:29:00 AM 42.6075 -114.4419 194° South  Level FlightAware Approximate
Sun 11:29:47 AM 42.9911 -114.7169 233° Southwest 308 354 31,700  Level Salt Lake Center
Sun 11:30:49 AM 42.9381 -114.8111 232° Southwest 311 358 33,800 1,790 Climbing Salt Lake Center
Sun 11:31:51 AM 42.8833 -114.9064 232° Southwest 319 367 35,400 1,512 Climbing Salt Lake Center
Sun 11:32:52 AM 42.8278 -115.0072 233° Southwest 331 381 36,900 1,463 Climbing Salt Lake Center
Sun 11:33:54 AM 42.7725 -115.1056 233° Southwest 329 379 38,400 1,258 Climbing Salt Lake Center
Sun 11:34:56 AM 42.7164 -115.2044 232° Southwest 330 380 39,500 1,065 Climbing Salt Lake Center
Sun 11:35:58 AM 42.6475 -115.3272 233° Southwest 340 391 40,600 927 Climbing Salt Lake Center
Sun 11:36:59 AM 42.5892 -115.4308 233° Southwest 346 398 41,400 780 Climbing Salt Lake Center
Sun 11:38:01 AM 42.5289 -115.5372 232° Southwest 353 406 42,200 774 Climbing Salt Lake Center
Sun 11:39:03 AM 42.4675 -115.6422 232° Southwest 356 410 43,000 390 Climbing Salt Lake Center
Sun 11:40:04 AM 42.4053 -115.7506 232° Southwest 365 420 43,000  Level Salt Lake Center
Sun 11:41:06 AM 42.3419 -115.8619 232° Southwest 372 428 43,000  Level Salt Lake Center
Sun 11:42:08 AM 42.2769 -115.9728 232° Southwest 376 433 43,000  Level Salt Lake Center
Sun 11:43:09 AM 42.2006 -116.1033 232° Southwest 371 427 43,000  Level Salt Lake Center
Sun 11:44:11 AM 42.1381 -116.2128 232° Southwest 370 426 43,000  Level Salt Lake Center
Sun 11:45:13 AM 42.0733 -116.3206 231° Southwest 371 427 43,000  Level Salt Lake Center
Sun 11:46:15 AM 42.0106 -116.4281 232° Southwest 368 423 43,000  Level Salt Lake Center
Sun 11:47:16 AM 41.9400 -116.5492 232° Southwest 368 423 43,000  Level Salt Lake Center
Sun 11:48:18 AM 41.8789 -116.6528 232° Southwest 369 425 43,000  Level Salt Lake Center
Sun 11:49:20 AM 41.8181 -116.7556 232° Southwest 368 423 43,000  Level Salt Lake Center
Sun 11:50:21 AM 41.7467 -116.8750 231° Southwest 369 425 43,000  Level Salt Lake Center
Sun 11:51:23 AM 41.6858 -116.9750 231° Southwest 363 418 43,000  Level Salt Lake Center
Sun 11:52:25 AM 41.6158 -117.0928 232° Southwest 363 418 43,000  Level Salt Lake Center
Sun 11:53:26 AM 41.5556 -117.1928 231° Southwest 362 417 43,000  Level Salt Lake Center
Sun 11:54:28 AM 41.4853 -117.3111 232° Southwest 364 419 43,000  Level Salt Lake Center
Sun 11:55:30 AM 41.4242 -117.4108 231° Southwest 363 418 43,000  Level Salt Lake Center
Sun 11:56:32 AM 41.3633 -117.5094 231° Southwest 362 417 43,000  Level Salt Lake Center
Sun 11:57:33 AM 41.2931 -117.6256 231° Southwest 361 415 43,000  Level Salt Lake Center
Sun 11:58:35 AM 41.2328 -117.7225 230° Southwest 358 412 43,000  Level Salt Lake Center
Sun 11:59:37 AM 41.1617 -117.8375 231° Southwest 360 414 43,000  Level Salt Lake Center
Sun 12:00:38 PM 41.1003 -117.9375 231° Southwest 364 419 43,000  Level Salt Lake Center
Sun 12:01:40 PM 41.0286 -118.0536 231° Southwest 364 419 43,000  Level Salt Lake Center
Sun 12:02:42 PM 40.9664 -118.1517 230° Southwest 364 419 43,000  Level Salt Lake Center
Sun 12:03:44 PM 40.8947 -118.2658 230° Southwest 363 418 43,000  Level Salt Lake Center
Sun 12:04:45 PM 40.8336 -118.3642 231° Southwest 362 417 43,000  Level Salt Lake Center
Sun 12:05:47 PM 40.7722 -118.4608 230° Southwest 360 414 43,000  Level Salt Lake Center
Sun 12:06:49 PM 40.7003 -118.5750 230° Southwest 360 414 43,000  Level Salt Lake Center
Sun 12:07:50 PM 40.6392 -118.6711 230° Southwest 358 412 43,000  Level Salt Lake Center
Sun 12:08:38 PM 40.5919 -118.7503 232° Southwest 363 418 43,000  Level Oakland Center
Sun 12:09:39 PM 40.5267 -118.8519 230° Southwest 365 420 43,000  Level Oakland Center
Sun 12:10:40 PM 40.4492 -118.9736 230° Southwest 363 418 43,000  Level Oakland Center
Sun 12:11:41 PM 40.3833 -119.0758 230° Southwest 366 421 43,000  Level Oakland Center
Sun 12:12:42 PM 40.3158 -119.1797 230° Southwest 373 429 43,000  Level Oakland Center
Sun 12:13:43 PM 40.2492 -119.2819 230° Southwest 371 427 43,000  Level Oakland Center
Sun 12:14:45 PM 40.1825 -119.3828 229° Southwest 369 425 43,000 -683 Level Oakland Center
Sun 12:15:46 PM 40.1147 -119.4869 230° Southwest 375 432 41,600 -1,426 Descending Oakland Center
Sun 12:16:47 PM 40.0467 -119.5917 230° Southwest 379 436 40,100 -1,475 Descending Oakland Center
Sun 12:17:48 PM 39.9775 -119.6983 230° Southwest 384 442 38,600 -1,525 Descending Oakland Center
Sun 12:18:49 PM 39.9092 -119.8017 229° Southwest 380 437 37,000 -1,279 Descending Oakland Center
Sun 12:19:50 PM 39.8392 -119.9083 230° Southwest 384 442 36,000 -689 Descending Oakland Center
Sun 12:20:51 PM 39.7522 -120.0383 229° Southwest 393 452 35,600 -885 Descending Oakland Center
Sun 12:21:52 PM 39.6867 -120.1383 230° Southwest 400 460 34,200 -1,574 Descending Oakland Center
Sun 12:22:53 PM 39.6128 -120.2481 229° Southwest 404 465 32,400 -1,707 Descending Oakland Center
Sun 12:23:55 PM 39.5397 -120.3578 229° Southwest 403 464 30,700 -1,171 Descending Oakland Center
Sun 12:24:56 PM 39.4686 -120.4644 229° Southwest 394 453 30,000 -344 Descending Oakland Center
Sun 12:25:57 PM 39.3797 -120.5956 229° Southwest 401 461 30,000  Level Oakland Center
Sun 12:26:58 PM 39.3028 -120.7081 229° Southwest 412 474 30,000 -639 Level Oakland Center
Sun 12:27:59 PM 39.2253 -120.8217 229° Southwest 419 482 28,700 -1,659 Descending Oakland Center
Sun 12:29:01 PM 39.1506 -120.9333 229° Southwest 416 479 26,600 -2,049 Descending Oakland Center
Sun 12:30:02 PM 39.0825 -121.0353 229° Southwest 391 450 24,500 -2,115 Descending Oakland Center
Sun 12:31:03 PM 39.0181 -121.1286 228° Southwest 362 417 22,300 -2,230 Descending Oakland Center
Sun 12:31:55 PM 38.9667 -121.2167 233° Southwest 331 381 20,300 -1,981 Descending Northern Cal TRACON
Sun 12:32:49 PM 38.9000 -121.2833 218° Southwest 327 376 18,800 -1,842 Descending Northern Cal TRACON
Sun 12:33:49 PM 38.8500 -121.3833 237° Southwest 329 379 16,800 -2,000 Descending Northern Cal TRACON
Sun 12:34:43 PM 38.8000 -121.4500 226° Southwest 338 389 15,000 -1,522 Descending Northern Cal TRACON
Sun 12:37:10 PM 38.6533 -121.6558 228° Southwest 307 353 11,700 -1,148 Descending Oakland Center
Sun 12:38:12 PM 38.5850 -121.7064 210° Southwest 295 339 11,000 -927 Descending Oakland Center
Sun 12:39:13 PM 38.5150 -121.7511 207° Southwest 303 349 9,800 -1,377 Descending Oakland Center
Sun 12:40:14 PM 38.4661 -121.8367 234° Southwest 288 331 8,200 -1,525 Descending Oakland Center
Sun 12:41:15 PM 38.4217 -121.9158 234° Southwest 279 321 6,700 -1,475 Descending Oakland Center
Sun 12:42:16 PM 38.3644 -121.9694 216° Southwest 259 298 5,200 -885 Descending Oakland Center
Sun 12:43:17 PM 38.3053 -122.0206 214° Southwest 258 297 4,900 -146 Descending Oakland Center
Sun 12:44:19 PM 38.2461 -122.0692 213° Southwest 255 293 4,900  Level Oakland Center
Sun 12:45:20 PM 38.1872 -122.1161 212° Southwest 251 289 4,900 49 Level Oakland Center
Sun 12:46:21 PM 38.1281 -122.1647 213° Southwest 251 289 5,000 -443 Climbing Oakland Center
Sun 12:47:22 PM 38.0594 -122.2189 212° Southwest 244 281 4,000 -492 Descending Oakland Center
Sun 12:48:23 PM 38.0186 -122.2717 226° Southwest 216 249 4,000  Level Oakland Center
Sun 12:49:25 PM 37.9847 -122.3264 232° Southwest 199 229 4,000 -439 Level Oakland Center
Sun 12:50:26 PM 38.0144 -122.3692 311° West 204 235 3,100 -689 Descending Oakland Center
Sun 12:51:27 PM 38.0647 -122.3553 12° North 190 219 2,600 -492 Descending Oakland Center
Sun 12:52:28 PM 38.1097 -122.3328 21° North 179 206 2,100 -590 Descending Oakland Center
Sun 12:53:29 PM 38.1475 -122.3153 20° North 162 186 1,400 -683 Descending Oakland Center
Sun 12:54:31 PM 38.1775 -122.3000 22° Northeast 131 151 700 1,756 Descending Oakland Center
Sun 12:55:32 PM 38.2069 -122.2867 20° North 120 138 5,000 4,230 Climbing Oakland Center
Sun 12:57:00 PM 38.2132 -122.2807 31° Northeast  Level Estimated
Sun 01:04:00 PM 38.2132 -122.2807 31° Northeast  Level Estimated
Sun 01:05:00 PM 38.2132 -122.2807 31° Northeast  Level Estimated
Sun 01:06:00 PM 38.2132 -122.2807 31° Northeast  Level Estimated
Sun 01:07:00 PM 38.2132 -122.2807 31° Northeast  Level Estimated
Sun 01:08:00 PM 38.2132 -122.2807 31° Northeast  Level Estimated
Sun 01:09:00 PM 38.2132 -122.2807 31° Northeast  Level Estimated

Login

Don't have an account? Register now (free) for customized features, flight alerts, and more!